This is the latest recevied weather packets stored in our database for station/object KQ4OSL. If no packets are shown the sender has not sent any weather packets the latest 10 day(s).
| Time | Temp. | Humidity | Pressure | Rain* | Wind** | Luminosity | Snow |
|---|---|---|---|---|---|---|---|
| 1787420448 | 31.67° C | 68% | 1018.4 hPa | 0 mm | - | 762 W/m² | - |
| 1787420144 | 32.22° C | 65% | 1018.5 hPa | 0 mm | - | 799 W/m² | - |
| 1787419840 | 31.11° C | 67% | 1018.5 hPa | 0 mm | - | 822 W/m² | - |
| 1787419537 | 31.67° C | 67% | 1018.5 hPa | 0 mm | - | 790 W/m² | - |
| 1787419231 | 31.67° C | 73% | 1018.7 hPa | 0 mm | - | 776 W/m² | - |
| 1787396757 | 20.56° C | 99% | 1017.5 hPa | 0 mm | - | 0 W/m² | - |
| 1787396453 | 20.56° C | 99% | 1017.4 hPa | 3.05 mm | - | 0 W/m² | - |
| 1787396152 | 20.56° C | 99% | 1017.6 hPa | 7.87 mm | - | 0 W/m² | - |
| 1787395847 | 20.56° C | 99% | 1017.4 hPa | 4.83 mm | - | 0 W/m² | - |
| 1787395542 | 20.56° C | 99% | 1017.4 hPa | 0 mm | - | 0 W/m² | - |
| 1787395237 | 20.56° C | 99% | 1017.3 hPa | 0 mm | - | 0 W/m² | - |
| 1787394932 | 20.56° C | 99% | 1017.1 hPa | 0 mm | - | 0 W/m² | - |
| 1787394628 | 21.11° C | 99% | 1017.1 hPa | 0 mm | - | 0 W/m² | - |
| 1787394323 | 20.56° C | 99% | 1017.1 hPa | 0 mm | - | 0 W/m² | - |
| 1787394024 | 20.56° C | 99% | 1017 hPa | 0 mm | - | 0 W/m² | - |
| 1787393723 | 21.11° C | 99% | 1017 hPa | 0 mm | - | 0 W/m² | - |
| 1787393424 | 21.11° C | 99% | 1017 hPa | 0 mm | - | 0 W/m² | - |
| 1787393119 | 21.11° C | 99% | 1016.9 hPa | 0 mm | - | 0 W/m² | - |
| 1787392815 | 21.11° C | 99% | 1016.9 hPa | 0 mm | - | 0 W/m² | - |
| 1787392509 | 21.11° C | 99% | 1016.9 hPa | 0 mm | - | 0 W/m² | - |
| 1787392209 | 20.56° C | 99% | 1016.8 hPa | 0 mm | - | 0 W/m² | - |
| 1787391905 | 21.11° C | 99% | 1017 hPa | 0 mm | - | 0 W/m² | - |
| 1787391601 | 21.11° C | 99% | 1016.8 hPa | 0 mm | - | 0 W/m² | - |
| 1787391297 | 21.11° C | 99% | 1016.8 hPa | 0 mm | - | 0 W/m² | - |
| 1787390993 | 21.11° C | 99% | 1016.6 hPa | 0 mm | - | 0 W/m² | - |
* Rain latest hour (hover to see other rain measurements)
** Current wind speed in m/s (hover to see current wind gust speed)